createdAt,value
2023-08-19T00:04:27.880Z,12.13
2023-08-19T00:09:30.777Z,12.73
2023-08-19T00:14:34.953Z,12.90
2023-08-19T00:19:37.863Z,10.43
2023-08-19T00:24:40.688Z,12.90
2023-08-19T00:29:44.878Z,12.70
2023-08-19T00:34:48.412Z,11.90
2023-08-19T00:39:51.341Z,13.00
2023-08-19T00:44:55.756Z,13.17
2023-08-19T00:49:58.909Z,12.80
2023-08-19T00:55:02.032Z,12.50
2023-08-19T01:00:07.441Z,12.60
2023-08-19T01:05:10.916Z,13.77
2023-08-19T01:10:22.411Z,12.53
2023-08-19T01:15:31.976Z,13.07
2023-08-19T01:20:36.444Z,12.70
2023-08-19T01:25:42.750Z,14.43
2023-08-19T01:30:45.884Z,14.23
2023-08-19T01:35:55.950Z,11.83
2023-08-19T01:41:00.966Z,13.30
2023-08-19T01:46:04.419Z,12.80
2023-08-19T01:51:07.627Z,13.00
2023-08-19T01:56:12.806Z,12.00
2023-08-19T02:01:15.985Z,12.93
2023-08-19T02:06:18.895Z,13.20
2023-08-19T02:11:23.159Z,12.97
2023-08-19T02:16:25.990Z,14.80
2023-08-19T02:21:28.914Z,14.10
2023-08-19T02:26:33.108Z,13.90
2023-08-19T02:31:35.999Z,12.30
2023-08-19T02:36:39.005Z,12.20
2023-08-19T02:41:43.381Z,11.10
2023-08-19T02:46:46.280Z,13.40
2023-08-19T02:51:49.169Z,13.33
2023-08-19T02:56:53.405Z,12.03
2023-08-19T03:01:56.437Z,13.17
2023-08-19T03:06:59.357Z,11.90
2023-08-19T03:12:03.570Z,13.03
2023-08-19T03:17:06.571Z,14.33
2023-08-19T03:22:09.381Z,13.60
2023-08-19T03:27:13.585Z,12.30
2023-08-19T03:32:16.446Z,13.70
2023-08-19T03:37:19.284Z,13.40
2023-08-19T03:42:23.447Z,12.77
2023-08-19T03:47:26.248Z,13.50
2023-08-19T03:52:29.042Z,12.33
2023-08-19T03:57:33.476Z,12.50
2023-08-19T04:02:36.653Z,14.33
2023-08-19T04:07:40.107Z,12.33
2023-08-19T04:12:45.086Z,12.10
2023-08-19T04:17:49.101Z,13.17
2023-08-19T04:22:51.956Z,14.40
2023-08-19T04:27:56.121Z,13.10
2023-08-19T04:32:59.753Z,14.90
2023-08-19T04:38:03.037Z,13.40
2023-08-19T04:43:07.231Z,14.40
2023-08-19T04:48:10.050Z,14.70
2023-08-19T04:53:13.775Z,16.03
2023-08-19T04:58:18.254Z,14.47
2023-08-19T05:03:21.204Z,15.80
2023-08-19T05:08:24.073Z,15.83
2023-08-19T05:13:28.359Z,15.43
2023-08-19T05:18:31.219Z,15.13
2023-08-19T05:23:34.181Z,17.00
2023-08-19T05:28:38.377Z,15.20
2023-08-19T05:33:41.204Z,16.97
2023-08-19T05:38:44.118Z,14.60
2023-08-19T05:43:48.319Z,16.53
2023-08-19T05:48:51.183Z,15.50
2023-08-19T05:54:00.536Z,16.63
2023-08-19T05:59:05.152Z,17.83
2023-08-19T06:04:07.956Z,16.00
2023-08-19T06:09:11.226Z,15.00
2023-08-19T06:14:15.459Z,16.77
2023-08-19T06:19:18.286Z,16.90
2023-08-19T06:24:21.177Z,16.73
2023-08-19T06:29:25.577Z,15.80
2023-08-19T06:34:28.965Z,16.20
2023-08-19T06:39:35.108Z,16.77
2023-08-19T06:44:41.759Z,17.20
2023-08-19T06:49:45.102Z,16.00
2023-08-19T06:54:48.733Z,14.30
2023-08-19T06:59:57.147Z,14.50
2023-08-19T07:05:02.192Z,15.40
2023-08-19T07:10:06.618Z,15.47
2023-08-19T07:15:13.373Z,15.03
2023-08-19T07:20:18.345Z,13.63
2023-08-19T07:25:21.984Z,13.67
2023-08-19T07:30:27.752Z,12.80
2023-08-19T07:35:30.634Z,12.60
2023-08-19T07:40:33.516Z,12.90
2023-08-19T07:45:37.992Z,10.77
2023-08-19T07:50:40.945Z,11.47
2023-08-19T07:55:44.597Z,13.00
2023-08-19T08:00:49.024Z,13.00
2023-08-19T08:05:51.868Z,11.77
2023-08-19T08:10:55.014Z,13.10
2023-08-19T08:16:00.272Z,12.40
2023-08-19T08:21:03.287Z,12.53
2023-08-19T08:26:06.307Z,11.33
2023-08-19T08:31:10.763Z,11.60
2023-08-19T08:36:13.852Z,11.10
2023-08-19T08:41:17.233Z,11.27
2023-08-19T08:46:21.763Z,11.53
2023-08-19T08:51:27.035Z,11.57
2023-08-19T08:56:30.075Z,11.70
2023-08-19T09:01:36.342Z,12.77
2023-08-19T09:06:40.812Z,11.83
2023-08-19T09:11:49.775Z,11.83
2023-08-19T09:16:54.390Z,10.97
2023-08-19T09:21:57.344Z,10.93
2023-08-19T09:27:00.303Z,10.90
2023-08-19T09:32:05.170Z,11.03
2023-08-19T09:37:10.433Z,11.13
2023-08-19T09:42:13.866Z,12.07
2023-08-19T09:47:18.153Z,9.63
2023-08-19T09:52:21.000Z,11.13
2023-08-19T09:57:33.567Z,8.97
2023-08-19T10:02:37.905Z,10.50
2023-08-19T10:07:47.431Z,9.17
2023-08-19T10:12:54.419Z,10.30
2023-08-19T10:18:01.168Z,11.50
2023-08-19T10:23:05.745Z,10.77
2023-08-19T10:28:11.905Z,9.30
2023-08-19T10:33:37.396Z,10.10
2023-08-19T10:38:45.404Z,10.17
2023-08-19T10:44:02.774Z,10.30
2023-08-19T10:49:08.124Z,11.30
2023-08-19T10:54:11.140Z,9.90
2023-08-19T10:59:14.079Z,10.67
2023-08-19T11:04:18.374Z,10.60
2023-08-19T11:09:21.337Z,10.00
2023-08-19T11:14:24.613Z,10.50
2023-08-19T11:19:28.799Z,10.77
2023-08-19T11:24:33.064Z,10.30
2023-08-19T11:29:39.134Z,10.57
2023-08-19T11:34:43.304Z,10.97
2023-08-19T11:39:47.573Z,10.03
2023-08-19T11:44:51.050Z,9.40
2023-08-19T11:49:55.934Z,10.07
2023-08-19T11:55:01.242Z,10.10
2023-08-19T12:00:06.110Z,9.97
2023-08-19T12:05:10.714Z,10.70
2023-08-19T12:10:14.131Z,9.70
2023-08-19T12:15:17.064Z,9.30
2023-08-19T12:20:21.219Z,9.33
2023-08-19T12:25:26.925Z,9.50
2023-08-19T12:30:29.723Z,9.80
2023-08-19T12:35:34.033Z,10.00
2023-08-19T12:40:38.178Z,8.80
2023-08-19T12:45:41.877Z,9.63
2023-08-19T12:50:46.264Z,9.57
2023-08-19T12:55:49.134Z,9.60
2023-08-19T13:00:52.005Z,9.20
2023-08-19T13:05:56.272Z,10.40
2023-08-19T13:10:59.140Z,9.37
2023-08-19T13:16:02.021Z,9.93
2023-08-19T13:21:06.266Z,11.33
2023-08-19T13:26:09.248Z,9.37
2023-08-19T13:31:12.708Z,9.33
2023-08-19T13:36:16.985Z,9.90
2023-08-19T13:41:19.838Z,10.40
2023-08-19T13:46:22.804Z,9.80
2023-08-19T13:51:27.010Z,10.10
2023-08-19T13:56:29.805Z,10.27
2023-08-19T14:01:32.716Z,9.50
2023-08-19T14:06:37.254Z,10.50
2023-08-19T14:11:40.110Z,8.93
2023-08-19T14:16:54.320Z,11.47
2023-08-19T14:21:58.549Z,9.57
2023-08-19T14:27:01.600Z,9.50
2023-08-19T14:32:05.370Z,10.33
2023-08-19T14:37:10.490Z,9.90
2023-08-19T14:42:13.533Z,10.00
2023-08-19T14:47:16.415Z,8.90
2023-08-19T14:52:22.096Z,10.20
2023-08-19T14:57:24.934Z,11.07
2023-08-19T15:02:45.168Z,10.13
2023-08-19T15:07:49.900Z,10.30
2023-08-19T15:12:52.780Z,11.03
2023-08-19T15:17:55.708Z,10.50
2023-08-19T15:22:59.956Z,11.10
2023-08-19T15:28:03.039Z,11.67
2023-08-19T15:33:06.574Z,11.83
2023-08-19T15:38:10.820Z,11.60
2023-08-19T15:43:13.734Z,10.97
2023-08-19T15:48:16.578Z,11.50
2023-08-19T15:53:20.811Z,11.73
2023-08-19T15:58:23.752Z,11.50
2023-08-19T16:03:26.694Z,11.73
2023-08-19T16:08:31.867Z,11.57
2023-08-19T16:13:35.419Z,13.10
2023-08-19T16:18:38.297Z,12.17
2023-08-19T16:23:42.611Z,11.20
2023-08-19T16:28:45.526Z,12.67
2023-08-19T16:33:48.374Z,11.77
2023-08-19T16:38:54.670Z,12.10
2023-08-19T16:43:57.925Z,13.37
2023-08-19T16:49:01.309Z,12.70
2023-08-19T16:54:05.921Z,12.57
2023-08-19T16:59:08.814Z,14.57
2023-08-19T17:04:11.691Z,13.63
2023-08-19T17:09:15.955Z,14.10
2023-08-19T17:14:18.844Z,13.50
2023-08-19T17:19:21.751Z,13.67
2023-08-19T17:24:26.216Z,14.90
2023-08-19T17:29:29.116Z,15.20
2023-08-19T17:34:32.236Z,13.20
2023-08-19T17:39:36.509Z,13.40
2023-08-19T17:44:44.953Z,14.23
2023-08-19T17:49:47.901Z,12.60
2023-08-19T17:54:52.716Z,11.70
2023-08-19T17:59:55.660Z,17.60
2023-08-19T18:04:58.869Z,17.93
2023-08-19T18:10:03.642Z,13.90
2023-08-19T18:15:08.106Z,13.63
2023-08-19T18:20:11.796Z,14.00
2023-08-19T18:25:16.670Z,14.80
2023-08-19T18:30:20.126Z,15.30
2023-08-19T18:35:23.147Z,15.27
2023-08-19T18:40:29.142Z,15.73
2023-08-19T18:45:32.354Z,18.90
2023-08-19T18:50:36.983Z,14.77
2023-08-19T18:55:44.426Z,14.97
2023-08-19T19:00:50.117Z,17.13
2023-08-19T19:05:55.564Z,16.07
2023-08-19T19:11:02.595Z,15.80
2023-08-19T19:16:08.597Z,17.33
2023-08-19T19:21:17.107Z,16.70
2023-08-19T19:26:24.227Z,18.20
2023-08-19T19:31:29.621Z,17.80
2023-08-19T19:36:35.658Z,17.40
2023-08-19T19:41:42.691Z,16.90
2023-08-19T19:46:48.123Z,18.13
2023-08-19T19:51:53.550Z,16.93
2023-08-19T19:57:00.512Z,19.30
2023-08-19T20:02:05.941Z,17.50
2023-08-19T20:07:11.265Z,17.00
2023-08-19T20:12:18.189Z,17.30
2023-08-19T20:17:24.199Z,20.00
2023-08-19T20:22:29.651Z,18.50
2023-08-19T20:27:37.091Z,17.00
2023-08-19T20:32:42.550Z,16.97
2023-08-19T20:37:48.156Z,17.53
2023-08-19T20:42:55.235Z,17.97
2023-08-19T20:48:00.710Z,18.70
2023-08-19T20:53:05.549Z,18.63
2023-08-19T20:58:11.195Z,18.80
2023-08-19T21:03:14.203Z,18.73
2023-08-19T21:08:17.242Z,18.33
2023-08-19T21:13:21.456Z,18.43
2023-08-19T21:18:24.718Z,18.57
2023-08-19T21:23:27.860Z,18.53
2023-08-19T21:28:35.400Z,19.60
2023-08-19T21:33:38.324Z,19.67
2023-08-19T21:38:41.258Z,18.90
2023-08-19T21:43:45.974Z,22.03
2023-08-19T21:48:50.717Z,19.23
2023-08-19T21:53:53.755Z,18.67
2023-08-19T21:58:57.940Z,18.03
2023-08-19T22:04:01.110Z,17.97
2023-08-19T22:09:04.061Z,18.93
2023-08-19T22:14:08.383Z,19.33
2023-08-19T22:19:11.297Z,18.80
2023-08-19T22:24:14.156Z,17.83
2023-08-19T22:29:18.383Z,19.50
2023-08-19T22:34:21.229Z,18.97
2023-08-19T22:39:24.072Z,17.30
2023-08-19T22:44:28.297Z,17.57
2023-08-19T22:49:31.262Z,17.93
2023-08-19T22:54:34.095Z,17.60
2023-08-19T22:59:38.709Z,17.50
2023-08-19T23:04:41.563Z,18.17
2023-08-19T23:09:44.463Z,16.80
2023-08-19T23:14:48.717Z,18.03
2023-08-19T23:19:51.729Z,19.00
2023-08-19T23:24:54.577Z,18.20
2023-08-19T23:29:58.818Z,17.40
2023-08-19T23:35:01.670Z,19.17
2023-08-19T23:40:05.530Z,18.60
2023-08-19T23:45:10.937Z,18.47
2023-08-19T23:50:14.830Z,18.33
2023-08-19T23:55:19.526Z,19.07
